sensor_id;sensor_type;location;lat;lon;timestamp;P1;durP1;ratioP1;P2;durP2;ratioP2
78885;SDS011;68269;52.514;5.722;2023-04-30T00:00:17;6.97;;;1.92;;
78885;SDS011;68269;52.514;5.722;2023-04-30T00:02:46;6.80;;;2.08;;
78885;SDS011;68269;52.514;5.722;2023-04-30T00:05:15;8.00;;;2.28;;
78885;SDS011;68269;52.514;5.722;2023-04-30T00:07:45;5.07;;;1.65;;
78885;SDS011;68269;52.514;5.722;2023-04-30T00:10:14;8.07;;;2.30;;
78885;SDS011;68269;52.514;5.722;2023-04-30T00:12:46;7.25;;;2.60;;
78885;SDS011;68269;52.514;5.722;2023-04-30T00:15:16;8.20;;;2.65;;
78885;SDS011;68269;52.514;5.722;2023-04-30T00:17:45;7.82;;;2.30;;
78885;SDS011;68269;52.514;5.722;2023-04-30T00:20:14;7.40;;;2.33;;
78885;SDS011;68269;52.514;5.722;2023-04-30T00:22:44;8.73;;;2.20;;
78885;SDS011;68269;52.514;5.722;2023-04-30T00:25:13;7.43;;;2.10;;
78885;SDS011;68269;52.514;5.722;2023-04-30T00:27:45;6.70;;;1.88;;
78885;SDS011;68269;52.514;5.722;2023-04-30T00:30:14;9.20;;;2.10;;
78885;SDS011;68269;52.514;5.722;2023-04-30T00:32:44;8.07;;;2.50;;
78885;SDS011;68269;52.514;5.722;2023-04-30T00:35:13;8.18;;;1.92;;
78885;SDS011;68269;52.514;5.722;2023-04-30T00:37:42;6.13;;;1.70;;
78885;SDS011;68269;52.514;5.722;2023-04-30T00:40:12;6.35;;;1.90;;
78885;SDS011;68269;52.514;5.722;2023-04-30T00:42:41;7.13;;;1.98;;
78885;SDS011;68269;52.514;5.722;2023-04-30T00:45:13;6.53;;;2.10;;
78885;SDS011;68269;52.514;5.722;2023-04-30T00:50:15;5.72;;;1.88;;
78885;SDS011;68269;52.514;5.722;2023-04-30T00:52:45;7.57;;;1.80;;
78885;SDS011;68269;52.514;5.722;2023-04-30T00:55:14;8.73;;;1.90;;
78885;SDS011;68269;52.514;5.722;2023-04-30T00:57:47;6.00;;;2.08;;
78885;SDS011;68269;52.514;5.722;2023-04-30T01:00:17;6.05;;;1.90;;
78885;SDS011;68269;52.514;5.722;2023-04-30T01:02:46;6.55;;;2.30;;
78885;SDS011;68269;52.514;5.722;2023-04-30T01:05:15;7.22;;;2.10;;
78885;SDS011;68269;52.514;5.722;2023-04-30T01:07:45;11.07;;;2.70;;
78885;SDS011;68269;52.514;5.722;2023-04-30T01:10:14;8.75;;;2.35;;
78885;SDS011;68269;52.514;5.722;2023-04-30T01:12:51;7.32;;;1.92;;
78885;SDS011;68269;52.514;5.722;2023-04-30T01:15:26;5.80;;;2.10;;
78885;SDS011;68269;52.514;5.722;2023-04-30T01:18:02;6.20;;;1.90;;
78885;SDS011;68269;52.514;5.722;2023-04-30T01:20:34;8.70;;;2.30;;
78885;SDS011;68269;52.514;5.722;2023-04-30T01:23:13;6.78;;;1.77;;
78885;SDS011;68269;52.514;5.722;2023-04-30T01:25:52;9.40;;;2.10;;
78885;SDS011;68269;52.514;5.722;2023-04-30T01:28:30;7.03;;;2.50;;
78885;SDS011;68269;52.514;5.722;2023-04-30T01:31:09;7.82;;;1.95;;
78885;SDS011;68269;52.514;5.722;2023-04-30T01:33:41;10.38;;;2.55;;
78885;SDS011;68269;52.514;5.722;2023-04-30T01:39:19;9.57;;;2.17;;
78885;SDS011;68269;52.514;5.722;2023-04-30T01:42:04;8.35;;;2.00;;
78885;SDS011;68269;52.514;5.722;2023-04-30T01:44:49;7.68;;;2.10;;
78885;SDS011;68269;52.514;5.722;2023-04-30T01:47:45;6.63;;;2.03;;
78885;SDS011;68269;52.514;5.722;2023-04-30T01:50:23;6.47;;;2.30;;
78885;SDS011;68269;52.514;5.722;2023-04-30T01:52:57;5.45;;;1.90;;
78885;SDS011;68269;52.514;5.722;2023-04-30T01:55:29;7.03;;;1.98;;
78885;SDS011;68269;52.514;5.722;2023-04-30T01:58:05;6.13;;;1.85;;
78885;SDS011;68269;52.514;5.722;2023-04-30T02:03:09;6.65;;;1.85;;
78885;SDS011;68269;52.514;5.722;2023-04-30T02:05:38;6.65;;;2.33;;
78885;SDS011;68269;52.514;5.722;2023-04-30T02:08:08;7.47;;;1.90;;
78885;SDS011;68269;52.514;5.722;2023-04-30T02:10:37;7.00;;;1.90;;
78885;SDS011;68269;52.514;5.722;2023-04-30T02:13:06;8.27;;;2.53;;
78885;SDS011;68269;52.514;5.722;2023-04-30T02:15:36;10.88;;;2.38;;
78885;SDS011;68269;52.514;5.722;2023-04-30T02:18:08;5.97;;;1.77;;
78885;SDS011;68269;52.514;5.722;2023-04-30T02:20:37;8.02;;;2.10;;
78885;SDS011;68269;52.514;5.722;2023-04-30T02:23:06;6.15;;;2.08;;
78885;SDS011;68269;52.514;5.722;2023-04-30T02:25:36;7.90;;;2.10;;
78885;SDS011;68269;52.514;5.722;2023-04-30T02:28:05;7.63;;;1.70;;
78885;SDS011;68269;52.514;5.722;2023-04-30T02:30:35;6.80;;;1.75;;
78885;SDS011;68269;52.514;5.722;2023-04-30T02:33:04;6.60;;;2.03;;
78885;SDS011;68269;52.514;5.722;2023-04-30T02:35:39;5.53;;;1.70;;
78885;SDS011;68269;52.514;5.722;2023-04-30T02:38:09;7.60;;;1.83;;
78885;SDS011;68269;52.514;5.722;2023-04-30T02:40:39;5.57;;;1.88;;
78885;SDS011;68269;52.514;5.722;2023-04-30T02:43:09;6.55;;;1.90;;
78885;SDS011;68269;52.514;5.722;2023-04-30T02:45:38;5.68;;;1.90;;
78885;SDS011;68269;52.514;5.722;2023-04-30T02:48:07;7.53;;;2.33;;
78885;SDS011;68269;52.514;5.722;2023-04-30T02:50:39;7.03;;;2.08;;
78885;SDS011;68269;52.514;5.722;2023-04-30T02:53:08;6.15;;;1.90;;
78885;SDS011;68269;52.514;5.722;2023-04-30T02:55:38;7.55;;;1.92;;
78885;SDS011;68269;52.514;5.722;2023-04-30T02:58:07;4.72;;;1.58;;
78885;SDS011;68269;52.514;5.722;2023-04-30T03:00:38;8.75;;;2.28;;
78885;SDS011;68269;52.514;5.722;2023-04-30T03:03:07;5.97;;;1.95;;
78885;SDS011;68269;52.514;5.722;2023-04-30T03:05:39;8.27;;;1.92;;
78885;SDS011;68269;52.514;5.722;2023-04-30T03:08:09;8.07;;;2.10;;
78885;SDS011;68269;52.514;5.722;2023-04-30T03:10:38;7.10;;;2.30;;
78885;SDS011;68269;52.514;5.722;2023-04-30T03:13:07;8.05;;;2.22;;
78885;SDS011;68269;52.514;5.722;2023-04-30T03:15:37;5.65;;;1.83;;
78885;SDS011;68269;52.514;5.722;2023-04-30T03:18:06;7.53;;;2.17;;
78885;SDS011;68269;52.514;5.722;2023-04-30T03:20:35;7.32;;;2.25;;
78885;SDS011;68269;52.514;5.722;2023-04-30T03:23:07;9.18;;;3.17;;
78885;SDS011;68269;52.514;5.722;2023-04-30T03:25:36;6.60;;;2.22;;
78885;SDS011;68269;52.514;5.722;2023-04-30T03:28:06;7.13;;;2.22;;
78885;SDS011;68269;52.514;5.722;2023-04-30T03:30:35;5.78;;;1.83;;
78885;SDS011;68269;52.514;5.722;2023-04-30T03:33:04;7.68;;;1.90;;
78885;SDS011;68269;52.514;5.722;2023-04-30T03:35:34;5.85;;;1.98;;
78885;SDS011;68269;52.514;5.722;2023-04-30T03:38:03;10.32;;;2.63;;
78885;SDS011;68269;52.514;5.722;2023-04-30T03:40:35;7.20;;;2.17;;
78885;SDS011;68269;52.514;5.722;2023-04-30T03:43:04;6.10;;;2.10;;
78885;SDS011;68269;52.514;5.722;2023-04-30T03:45:34;8.43;;;2.25;;
78885;SDS011;68269;52.514;5.722;2023-04-30T03:48:03;7.22;;;2.50;;
78885;SDS011;68269;52.514;5.722;2023-04-30T03:50:33;7.32;;;2.20;;
78885;SDS011;68269;52.514;5.722;2023-04-30T03:53:02;7.25;;;2.20;;
78885;SDS011;68269;52.514;5.722;2023-04-30T03:55:32;4.95;;;1.95;;
78885;SDS011;68269;52.514;5.722;2023-04-30T03:58:04;7.82;;;2.67;;
78885;SDS011;68269;52.514;5.722;2023-04-30T04:00:33;6.93;;;2.03;;
78885;SDS011;68269;52.514;5.722;2023-04-30T04:03:03;5.75;;;1.70;;
78885;SDS011;68269;52.514;5.722;2023-04-30T04:05:32;8.57;;;2.50;;
78885;SDS011;68269;52.514;5.722;2023-04-30T04:08:01;7.95;;;2.15;;
78885;SDS011;68269;52.514;5.722;2023-04-30T04:10:31;7.38;;;2.13;;
78885;SDS011;68269;52.514;5.722;2023-04-30T04:13:04;6.30;;;2.45;;
78885;SDS011;68269;52.514;5.722;2023-04-30T04:15:34;7.93;;;2.72;;
78885;SDS011;68269;52.514;5.722;2023-04-30T04:18:03;7.80;;;2.45;;
78885;SDS011;68269;52.514;5.722;2023-04-30T04:20:33;7.32;;;1.98;;
78885;SDS011;68269;52.514;5.722;2023-04-30T04:23:02;9.20;;;2.60;;
78885;SDS011;68269;52.514;5.722;2023-04-30T04:25:33;8.02;;;3.00;;
78885;SDS011;68269;52.514;5.722;2023-04-30T04:28:06;9.10;;;2.45;;
78885;SDS011;68269;52.514;5.722;2023-04-30T04:30:36;9.88;;;2.35;;
78885;SDS011;68269;52.514;5.722;2023-04-30T04:33:06;6.53;;;2.03;;
78885;SDS011;68269;52.514;5.722;2023-04-30T04:35:36;7.50;;;2.53;;
78885;SDS011;68269;52.514;5.722;2023-04-30T04:38:06;7.07;;;1.98;;
78885;SDS011;68269;52.514;5.722;2023-04-30T04:40:35;5.65;;;2.25;;
78885;SDS011;68269;52.514;5.722;2023-04-30T04:43:08;10.27;;;2.50;;
78885;SDS011;68269;52.514;5.722;2023-04-30T04:45:37;6.82;;;2.08;;
78885;SDS011;68269;52.514;5.722;2023-04-30T04:48:07;7.47;;;2.38;;
78885;SDS011;68269;52.514;5.722;2023-04-30T04:50:37;6.90;;;2.38;;
78885;SDS011;68269;52.514;5.722;2023-04-30T04:53:06;7.93;;;1.90;;
78885;SDS011;68269;52.514;5.722;2023-04-30T04:55:36;6.90;;;2.00;;
78885;SDS011;68269;52.514;5.722;2023-04-30T04:58:08;9.90;;;2.17;;
78885;SDS011;68269;52.514;5.722;2023-04-30T05:00:38;8.05;;;2.45;;
78885;SDS011;68269;52.514;5.722;2023-04-30T05:03:07;8.23;;;1.88;;
78885;SDS011;68269;52.514;5.722;2023-04-30T05:05:37;6.72;;;2.40;;
78885;SDS011;68269;52.514;5.722;2023-04-30T05:08:06;6.32;;;2.50;;
78885;SDS011;68269;52.514;5.722;2023-04-30T05:10:35;6.78;;;2.40;;
78885;SDS011;68269;52.514;5.722;2023-04-30T05:13:04;6.60;;;2.33;;
78885;SDS011;68269;52.514;5.722;2023-04-30T05:15:36;7.40;;;2.33;;
78885;SDS011;68269;52.514;5.722;2023-04-30T05:18:05;7.22;;;2.45;;
78885;SDS011;68269;52.514;5.722;2023-04-30T05:20:35;10.13;;;2.53;;
78885;SDS011;68269;52.514;5.722;2023-04-30T05:23:04;8.57;;;2.63;;
78885;SDS011;68269;52.514;5.722;2023-04-30T05:25:34;8.38;;;2.55;;
78885;SDS011;68269;52.514;5.722;2023-04-30T05:28:03;8.40;;;2.38;;
78885;SDS011;68269;52.514;5.722;2023-04-30T05:30:33;10.77;;;2.85;;
78885;SDS011;68269;52.514;5.722;2023-04-30T05:33:05;8.27;;;2.92;;
78885;SDS011;68269;52.514;5.722;2023-04-30T05:35:34;9.15;;;2.20;;
78885;SDS011;68269;52.514;5.722;2023-04-30T05:38:03;8.95;;;2.03;;
78885;SDS011;68269;52.514;5.722;2023-04-30T05:40:32;8.38;;;2.58;;
78885;SDS011;68269;52.514;5.722;2023-04-30T05:43:02;11.13;;;2.70;;
78885;SDS011;68269;52.514;5.722;2023-04-30T05:45:31;9.05;;;2.63;;
78885;SDS011;68269;52.514;5.722;2023-04-30T05:48:03;7.15;;;2.47;;
78885;SDS011;68269;52.514;5.722;2023-04-30T05:50:33;8.05;;;2.67;;
78885;SDS011;68269;52.514;5.722;2023-04-30T05:53:02;8.88;;;2.78;;
78885;SDS011;68269;52.514;5.722;2023-04-30T05:55:31;7.57;;;2.83;;
78885;SDS011;68269;52.514;5.722;2023-04-30T05:58:01;10.57;;;2.80;;
78885;SDS011;68269;52.514;5.722;2023-04-30T06:00:31;9.25;;;2.88;;
78885;SDS011;68269;52.514;5.722;2023-04-30T06:03:00;9.15;;;2.83;;
78885;SDS011;68269;52.514;5.722;2023-04-30T06:05:32;7.63;;;2.63;;
78885;SDS011;68269;52.514;5.722;2023-04-30T06:08:02;8.65;;;2.88;;
78885;SDS011;68269;52.514;5.722;2023-04-30T06:10:31;7.30;;;2.42;;
78885;SDS011;68269;52.514;5.722;2023-04-30T06:13:00;11.57;;;2.35;;
78885;SDS011;68269;52.514;5.722;2023-04-30T06:15:29;12.25;;;2.83;;
78885;SDS011;68269;52.514;5.722;2023-04-30T06:17:59;7.25;;;2.15;;
78885;SDS011;68269;52.514;5.722;2023-04-30T06:20:31;8.10;;;2.28;;
78885;SDS011;68269;52.514;5.722;2023-04-30T06:23:00;9.00;;;2.10;;
78885;SDS011;68269;52.514;5.722;2023-04-30T06:25:30;8.07;;;2.50;;
78885;SDS011;68269;52.514;5.722;2023-04-30T06:27:59;10.68;;;3.03;;
78885;SDS011;68269;52.514;5.722;2023-04-30T06:32:59;6.47;;;1.70;;
78885;SDS011;68269;52.514;5.722;2023-04-30T06:35:31;14.23;;;2.28;;
78885;SDS011;68269;52.514;5.722;2023-04-30T06:38:00;8.23;;;2.15;;
78885;SDS011;68269;52.514;5.722;2023-04-30T06:40:29;8.18;;;2.15;;
78885;SDS011;68269;52.514;5.722;2023-04-30T06:42:59;9.18;;;2.42;;
78885;SDS011;68269;52.514;5.722;2023-04-30T06:45:28;11.85;;;2.13;;
78885;SDS011;68269;52.514;5.722;2023-04-30T06:47:57;6.55;;;2.03;;
78885;SDS011;68269;52.514;5.722;2023-04-30T06:50:26;6.57;;;1.83;;
78885;SDS011;68269;52.514;5.722;2023-04-30T06:52:58;7.53;;;1.70;;
78885;SDS011;68269;52.514;5.722;2023-04-30T06:55:28;8.20;;;2.33;;
78885;SDS011;68269;52.514;5.722;2023-04-30T06:57:57;5.32;;;1.92;;
78885;SDS011;68269;52.514;5.722;2023-04-30T07:00:26;8.07;;;1.98;;
78885;SDS011;68269;52.514;5.722;2023-04-30T07:02:56;7.55;;;1.55;;
78885;SDS011;68269;52.514;5.722;2023-04-30T07:05:27;6.30;;;1.83;;
78885;SDS011;68269;52.514;5.722;2023-04-30T07:07:59;7.05;;;1.95;;
78885;SDS011;68269;52.514;5.722;2023-04-30T07:10:29;8.20;;;1.73;;
78885;SDS011;68269;52.514;5.722;2023-04-30T07:12:59;6.80;;;2.20;;
78885;SDS011;68269;52.514;5.722;2023-04-30T07:15:28;7.15;;;1.95;;
78885;SDS011;68269;52.514;5.722;2023-04-30T07:17:57;8.18;;;2.00;;
78885;SDS011;68269;52.514;5.722;2023-04-30T07:20:28;7.43;;;2.17;;
78885;SDS011;68269;52.514;5.722;2023-04-30T07:23:00;5.38;;;1.77;;
78885;SDS011;68269;52.514;5.722;2023-04-30T07:25:30;5.80;;;1.65;;
78885;SDS011;68269;52.514;5.722;2023-04-30T07:27:59;11.93;;;2.67;;
78885;SDS011;68269;52.514;5.722;2023-04-30T07:30:28;6.07;;;1.83;;
78885;SDS011;68269;52.514;5.722;2023-04-30T07:32:58;11.25;;;1.80;;
78885;SDS011;68269;52.514;5.722;2023-04-30T07:35:27;11.25;;;2.53;;
78885;SDS011;68269;52.514;5.722;2023-04-30T07:37:57;5.60;;;1.85;;
78885;SDS011;68269;52.514;5.722;2023-04-30T07:40:28;7.57;;;1.67;;
78885;SDS011;68269;52.514;5.722;2023-04-30T07:42:58;5.18;;;1.55;;
78885;SDS011;68269;52.514;5.722;2023-04-30T07:45:27;6.18;;;1.60;;
78885;SDS011;68269;52.514;5.722;2023-04-30T07:47:56;7.95;;;1.83;;
78885;SDS011;68269;52.514;5.722;2023-04-30T07:50:26;6.72;;;1.92;;
78885;SDS011;68269;52.514;5.722;2023-04-30T07:52:58;6.72;;;1.67;;
78885;SDS011;68269;52.514;5.722;2023-04-30T07:55:31;7.80;;;2.08;;
78885;SDS011;68269;52.514;5.722;2023-04-30T07:58:00;7.10;;;1.83;;
78885;SDS011;68269;52.514;5.722;2023-04-30T08:00:29;7.00;;;1.80;;
78885;SDS011;68269;52.514;5.722;2023-04-30T08:02:59;6.00;;;1.45;;
78885;SDS011;68269;52.514;5.722;2023-04-30T08:05:28;6.40;;;1.63;;
78885;SDS011;68269;52.514;5.722;2023-04-30T08:07:57;5.88;;;1.42;;
78885;SDS011;68269;52.514;5.722;2023-04-30T08:10:27;7.88;;;1.70;;
78885;SDS011;68269;52.514;5.722;2023-04-30T08:12:59;4.55;;;1.08;;
78885;SDS011;68269;52.514;5.722;2023-04-30T08:15:28;5.18;;;1.25;;
78885;SDS011;68269;52.514;5.722;2023-04-30T08:17:57;4.57;;;1.35;;
78885;SDS011;68269;52.514;5.722;2023-04-30T08:20:27;6.07;;;1.58;;
78885;SDS011;68269;52.514;5.722;2023-04-30T08:22:56;6.13;;;1.70;;
78885;SDS011;68269;52.514;5.722;2023-04-30T08:25:26;5.05;;;1.40;;
78885;SDS011;68269;52.514;5.722;2023-04-30T08:27:58;3.83;;;1.20;;
78885;SDS011;68269;52.514;5.722;2023-04-30T08:30:28;5.32;;;1.40;;
78885;SDS011;68269;52.514;5.722;2023-04-30T08:32:57;3.25;;;0.98;;
78885;SDS011;68269;52.514;5.722;2023-04-30T08:35:26;9.18;;;1.35;;
78885;SDS011;68269;52.514;5.722;2023-04-30T08:37:57;4.50;;;1.20;;
78885;SDS011;68269;52.514;5.722;2023-04-30T08:40:26;3.33;;;1.20;;
78885;SDS011;68269;52.514;5.722;2023-04-30T08:43:04;7.28;;;1.17;;
78885;SDS011;68269;52.514;5.722;2023-04-30T08:45:35;5.10;;;1.10;;
78885;SDS011;68269;52.514;5.722;2023-04-30T08:48:07;2.78;;;1.00;;
78885;SDS011;68269;52.514;5.722;2023-04-30T08:50:40;4.00;;;1.00;;
78885;SDS011;68269;52.514;5.722;2023-04-30T08:53:10;3.55;;;1.10;;
78885;SDS011;68269;52.514;5.722;2023-04-30T08:55:42;3.78;;;1.13;;
78885;SDS011;68269;52.514;5.722;2023-04-30T08:58:14;7.53;;;1.35;;
78885;SDS011;68269;52.514;5.722;2023-04-30T09:00:43;4.47;;;1.55;;
78885;SDS011;68269;52.514;5.722;2023-04-30T09:03:12;4.35;;;0.90;;
78885;SDS011;68269;52.514;5.722;2023-04-30T09:05:42;7.25;;;1.38;;
78885;SDS011;68269;52.514;5.722;2023-04-30T09:08:15;6.45;;;1.20;;
78885;SDS011;68269;52.514;5.722;2023-04-30T09:10:45;5.90;;;1.27;;
78885;SDS011;68269;52.514;5.722;2023-04-30T09:13:17;3.10;;;1.13;;
78885;SDS011;68269;52.514;5.722;2023-04-30T09:15:49;8.30;;;1.50;;
78885;SDS011;68269;52.514;5.722;2023-04-30T09:18:19;7.65;;;1.52;;
78885;SDS011;68269;52.514;5.722;2023-04-30T09:20:55;4.45;;;1.20;;
78885;SDS011;68269;52.514;5.722;2023-04-30T09:23:26;5.43;;;1.58;;
78885;SDS011;68269;52.514;5.722;2023-04-30T09:25:56;3.28;;;1.30;;
78885;SDS011;68269;52.514;5.722;2023-04-30T09:28:28;8.70;;;1.92;;
78885;SDS011;68269;52.514;5.722;2023-04-30T09:30:57;4.57;;;1.35;;
78885;SDS011;68269;52.514;5.722;2023-04-30T09:33:27;4.05;;;1.05;;
78885;SDS011;68269;52.514;5.722;2023-04-30T09:36:12;7.03;;;1.67;;
78885;SDS011;68269;52.514;5.722;2023-04-30T09:38:41;8.85;;;1.55;;
78885;SDS011;68269;52.514;5.722;2023-04-30T09:41:20;3.67;;;1.00;;
78885;SDS011;68269;52.514;5.722;2023-04-30T09:43:53;5.78;;;1.33;;
78885;SDS011;68269;52.514;5.722;2023-04-30T09:46:28;4.72;;;1.15;;
78885;SDS011;68269;52.514;5.722;2023-04-30T09:48:59;5.05;;;1.27;;
78885;SDS011;68269;52.514;5.722;2023-04-30T09:51:30;5.25;;;1.05;;
78885;SDS011;68269;52.514;5.722;2023-04-30T09:54:00;7.65;;;1.35;;
78885;SDS011;68269;52.514;5.722;2023-04-30T09:56:31;7.32;;;1.00;;
78885;SDS011;68269;52.514;5.722;2023-04-30T09:59:06;4.30;;;1.00;;
78885;SDS011;68269;52.514;5.722;2023-04-30T10:01:39;5.28;;;1.20;;
78885;SDS011;68269;52.514;5.722;2023-04-30T10:04:09;4.43;;;1.10;;
78885;SDS011;68269;52.514;5.722;2023-04-30T10:06:38;7.28;;;0.90;;
78885;SDS011;68269;52.514;5.722;2023-04-30T10:09:09;5.15;;;1.27;;
78885;SDS011;68269;52.514;5.722;2023-04-30T10:11:41;4.80;;;1.10;;
78885;SDS011;68269;52.514;5.722;2023-04-30T10:14:14;3.20;;;1.13;;
78885;SDS011;68269;52.514;5.722;2023-04-30T10:16:49;10.05;;;1.50;;
78885;SDS011;68269;52.514;5.722;2023-04-30T10:19:22;7.50;;;1.45;;
78885;SDS011;68269;52.514;5.722;2023-04-30T10:21:54;6.28;;;1.10;;
78885;SDS011;68269;52.514;5.722;2023-04-30T10:24:23;4.85;;;1.33;;
78885;SDS011;68269;52.514;5.722;2023-04-30T10:26:53;3.38;;;0.93;;
78885;SDS011;68269;52.514;5.722;2023-04-30T10:29:25;4.70;;;1.10;;
78885;SDS011;68269;52.514;5.722;2023-04-30T10:31:55;5.70;;;1.02;;
78885;SDS011;68269;52.514;5.722;2023-04-30T10:34:29;4.95;;;0.82;;
78885;SDS011;68269;52.514;5.722;2023-04-30T10:37:12;5.60;;;1.20;;
78885;SDS011;68269;52.514;5.722;2023-04-30T10:39:48;4.50;;;1.17;;
78885;SDS011;68269;52.514;5.722;2023-04-30T10:42:19;4.90;;;1.17;;
78885;SDS011;68269;52.514;5.722;2023-04-30T10:44:50;4.00;;;1.13;;
78885;SDS011;68269;52.514;5.722;2023-04-30T10:47:26;3.78;;;1.05;;
78885;SDS011;68269;52.514;5.722;2023-04-30T10:50:01;4.18;;;1.08;;
78885;SDS011;68269;52.514;5.722;2023-04-30T10:52:30;7.75;;;1.35;;
78885;SDS011;68269;52.514;5.722;2023-04-30T10:55:02;4.13;;;1.20;;
78885;SDS011;68269;52.514;5.722;2023-04-30T10:57:39;4.60;;;1.20;;
78885;SDS011;68269;52.514;5.722;2023-04-30T11:00:23;2.70;;;0.90;;
78885;SDS011;68269;52.514;5.722;2023-04-30T11:02:57;4.78;;;1.10;;
78885;SDS011;68269;52.514;5.722;2023-04-30T11:05:33;4.25;;;0.82;;
78885;SDS011;68269;52.514;5.722;2023-04-30T11:08:03;8.20;;;1.30;;
78885;SDS011;68269;52.514;5.722;2023-04-30T11:10:33;6.70;;;1.30;;
78885;SDS011;68269;52.514;5.722;2023-04-30T11:13:03;5.38;;;1.25;;
78885;SDS011;68269;52.514;5.722;2023-04-30T11:15:41;5.25;;;1.10;;
78885;SDS011;68269;52.514;5.722;2023-04-30T11:18:13;5.88;;;1.45;;
78885;SDS011;68269;52.514;5.722;2023-04-30T11:20:48;6.90;;;1.38;;
78885;SDS011;68269;52.514;5.722;2023-04-30T11:23:21;5.10;;;0.93;;
78885;SDS011;68269;52.514;5.722;2023-04-30T11:25:52;6.32;;;1.23;;
78885;SDS011;68269;52.514;5.722;2023-04-30T11:28:24;4.95;;;1.33;;
78885;SDS011;68269;52.514;5.722;2023-04-30T11:30:58;6.63;;;1.20;;
78885;SDS011;68269;52.514;5.722;2023-04-30T11:33:29;3.47;;;1.00;;
78885;SDS011;68269;52.514;5.722;2023-04-30T11:36:00;3.92;;;1.00;;
78885;SDS011;68269;52.514;5.722;2023-04-30T11:38:30;4.15;;;1.48;;
78885;SDS011;68269;52.514;5.722;2023-04-30T11:41:02;4.22;;;1.02;;
78885;SDS011;68269;52.514;5.722;2023-04-30T11:43:32;5.25;;;1.40;;
78885;SDS011;68269;52.514;5.722;2023-04-30T11:46:06;7.18;;;1.42;;
78885;SDS011;68269;52.514;5.722;2023-04-30T11:48:38;5.95;;;1.52;;
78885;SDS011;68269;52.514;5.722;2023-04-30T11:51:14;4.40;;;1.10;;
78885;SDS011;68269;52.514;5.722;2023-04-30T11:53:44;5.47;;;1.42;;
78885;SDS011;68269;52.514;5.722;2023-04-30T11:56:16;5.03;;;1.35;;
78885;SDS011;68269;52.514;5.722;2023-04-30T11:58:46;6.80;;;1.42;;
78885;SDS011;68269;52.514;5.722;2023-04-30T12:01:19;3.15;;;1.02;;
78885;SDS011;68269;52.514;5.722;2023-04-30T12:03:49;4.43;;;1.23;;
78885;SDS011;68269;52.514;5.722;2023-04-30T12:06:22;6.05;;;1.60;;
78885;SDS011;68269;52.514;5.722;2023-04-30T12:08:53;6.05;;;1.45;;
78885;SDS011;68269;52.514;5.722;2023-04-30T12:11:23;4.72;;;1.40;;
78885;SDS011;68269;52.514;5.722;2023-04-30T12:13:53;5.13;;;1.33;;
78885;SDS011;68269;52.514;5.722;2023-04-30T12:16:37;4.00;;;1.10;;
78885;SDS011;68269;52.514;5.722;2023-04-30T12:19:08;6.68;;;1.38;;
78885;SDS011;68269;52.514;5.722;2023-04-30T12:21:38;4.40;;;1.10;;
78885;SDS011;68269;52.514;5.722;2023-04-30T12:24:09;5.38;;;1.00;;
78885;SDS011;68269;52.514;5.722;2023-04-30T12:26:39;5.45;;;1.60;;
78885;SDS011;68269;52.514;5.722;2023-04-30T12:29:09;6.18;;;1.48;;
78885;SDS011;68269;52.514;5.722;2023-04-30T12:31:41;7.47;;;1.42;;
78885;SDS011;68269;52.514;5.722;2023-04-30T12:34:12;7.88;;;1.77;;
78885;SDS011;68269;52.514;5.722;2023-04-30T12:36:43;7.45;;;1.55;;
78885;SDS011;68269;52.514;5.722;2023-04-30T12:39:13;5.20;;;1.10;;
78885;SDS011;68269;52.514;5.722;2023-04-30T12:41:43;4.22;;;1.70;;
78885;SDS011;68269;52.514;5.722;2023-04-30T12:44:17;4.88;;;1.40;;
78885;SDS011;68269;52.514;5.722;2023-04-30T12:46:51;9.20;;;1.80;;
78885;SDS011;68269;52.514;5.722;2023-04-30T12:49:25;5.65;;;1.65;;
78885;SDS011;68269;52.514;5.722;2023-04-30T12:51:57;5.78;;;1.40;;
78885;SDS011;68269;52.514;5.722;2023-04-30T12:54:28;6.22;;;1.85;;
78885;SDS011;68269;52.514;5.722;2023-04-30T12:56:59;5.18;;;1.50;;
78885;SDS011;68269;52.514;5.722;2023-04-30T12:59:31;5.80;;;1.40;;
78885;SDS011;68269;52.514;5.722;2023-04-30T13:02:07;5.95;;;1.38;;
78885;SDS011;68269;52.514;5.722;2023-04-30T13:04:38;4.85;;;1.17;;
78885;SDS011;68269;52.514;5.722;2023-04-30T13:07:08;7.22;;;1.52;;
78885;SDS011;68269;52.514;5.722;2023-04-30T13:09:38;5.03;;;1.60;;
78885;SDS011;68269;52.514;5.722;2023-04-30T13:12:07;6.72;;;1.75;;
78885;SDS011;68269;52.514;5.722;2023-04-30T13:14:36;5.38;;;1.02;;
78885;SDS011;68269;52.514;5.722;2023-04-30T13:17:08;7.63;;;1.60;;
78885;SDS011;68269;52.514;5.722;2023-04-30T13:19:38;5.72;;;1.75;;
78885;SDS011;68269;52.514;5.722;2023-04-30T13:22:08;8.55;;;1.70;;
78885;SDS011;68269;52.514;5.722;2023-04-30T13:24:37;6.57;;;1.98;;
78885;SDS011;68269;52.514;5.722;2023-04-30T13:27:06;8.15;;;1.48;;
78885;SDS011;68269;52.514;5.722;2023-04-30T13:29:36;7.40;;;1.60;;
78885;SDS011;68269;52.514;5.722;2023-04-30T13:32:05;6.28;;;1.65;;
78885;SDS011;68269;52.514;5.722;2023-04-30T13:34:37;6.03;;;1.30;;
78885;SDS011;68269;52.514;5.722;2023-04-30T13:37:06;7.63;;;1.58;;
78885;SDS011;68269;52.514;5.722;2023-04-30T13:39:36;6.88;;;1.52;;
78885;SDS011;68269;52.514;5.722;2023-04-30T13:42:06;6.35;;;1.60;;
78885;SDS011;68269;52.514;5.722;2023-04-30T13:44:35;4.82;;;1.05;;
78885;SDS011;68269;52.514;5.722;2023-04-30T13:47:05;5.53;;;1.25;;
78885;SDS011;68269;52.514;5.722;2023-04-30T13:49:37;4.63;;;1.20;;
78885;SDS011;68269;52.514;5.722;2023-04-30T13:52:07;3.85;;;1.00;;
78885;SDS011;68269;52.514;5.722;2023-04-30T13:54:36;7.40;;;1.50;;
78885;SDS011;68269;52.514;5.722;2023-04-30T13:57:06;5.55;;;1.52;;
78885;SDS011;68269;52.514;5.722;2023-04-30T13:59:35;6.45;;;1.50;;
78885;SDS011;68269;52.514;5.722;2023-04-30T14:02:05;4.63;;;1.05;;
78885;SDS011;68269;52.514;5.722;2023-04-30T14:04:34;5.57;;;1.48;;
78885;SDS011;68269;52.514;5.722;2023-04-30T14:07:06;6.20;;;1.50;;
78885;SDS011;68269;52.514;5.722;2023-04-30T14:09:35;7.15;;;1.20;;
78885;SDS011;68269;52.514;5.722;2023-04-30T14:12:05;4.60;;;1.60;;
78885;SDS011;68269;52.514;5.722;2023-04-30T14:14:34;8.38;;;2.42;;
78885;SDS011;68269;52.514;5.722;2023-04-30T14:17:04;5.18;;;1.45;;
78885;SDS011;68269;52.514;5.722;2023-04-30T14:19:33;5.70;;;1.40;;
78885;SDS011;68269;52.514;5.722;2023-04-30T14:22:05;5.55;;;1.30;;
78885;SDS011;68269;52.514;5.722;2023-04-30T14:24:34;3.17;;;0.98;;
78885;SDS011;68269;52.514;5.722;2023-04-30T14:27:04;6.72;;;1.48;;
78885;SDS011;68269;52.514;5.722;2023-04-30T14:29:33;4.95;;;1.25;;
78885;SDS011;68269;52.514;5.722;2023-04-30T14:32:03;6.78;;;1.55;;
78885;SDS011;68269;52.514;5.722;2023-04-30T14:34:33;6.30;;;1.30;;
78885;SDS011;68269;52.514;5.722;2023-04-30T14:37:05;4.40;;;0.95;;
78885;SDS011;68269;52.514;5.722;2023-04-30T14:39:34;6.00;;;1.45;;
78885;SDS011;68269;52.514;5.722;2023-04-30T14:42:05;5.60;;;1.25;;
78885;SDS011;68269;52.514;5.722;2023-04-30T14:44:35;5.57;;;1.35;;
78885;SDS011;68269;52.514;5.722;2023-04-30T14:47:05;4.88;;;1.10;;
78885;SDS011;68269;52.514;5.722;2023-04-30T14:49:34;3.63;;;1.15;;
78885;SDS011;68269;52.514;5.722;2023-04-30T14:52:06;5.85;;;1.40;;
78885;SDS011;68269;52.514;5.722;2023-04-30T14:54:35;5.30;;;1.33;;
78885;SDS011;68269;52.514;5.722;2023-04-30T14:57:05;7.60;;;2.30;;
78885;SDS011;68269;52.514;5.722;2023-04-30T14:59:34;6.07;;;1.70;;
78885;SDS011;68269;52.514;5.722;2023-04-30T15:02:05;6.05;;;1.15;;
78885;SDS011;68269;52.514;5.722;2023-04-30T15:04:34;9.13;;;2.53;;
78885;SDS011;68269;52.514;5.722;2023-04-30T15:07:06;6.75;;;1.00;;
78885;SDS011;68269;52.514;5.722;2023-04-30T15:09:35;4.80;;;0.88;;
78885;SDS011;68269;52.514;5.722;2023-04-30T15:12:05;3.17;;;0.80;;
78885;SDS011;68269;52.514;5.722;2023-04-30T15:14:34;4.53;;;1.20;;
78885;SDS011;68269;52.514;5.722;2023-04-30T15:17:03;6.85;;;2.70;;
78885;SDS011;68269;52.514;5.722;2023-04-30T15:19:33;6.38;;;1.80;;